sensor_id;sensor_type;location;lat;lon;timestamp;pressure;altitude;pressure_sealevel;temperature;humidity
29247;BME280;16272;48.188;9.964;2022-08-19T00:00:12;95334.16;;;20.68;75.43
29247;BME280;16272;48.188;9.964;2022-08-19T00:02:40;95340.53;;;20.12;78.05
29247;BME280;16272;48.188;9.964;2022-08-19T00:05:07;95325.91;;;20.63;75.76
29247;BME280;16272;48.188;9.964;2022-08-19T00:07:33;95324.44;;;20.61;75.14
29247;BME280;16272;48.188;9.964;2022-08-19T00:09:58;95307.03;;;20.93;73.01
29247;BME280;16272;48.188;9.964;2022-08-19T00:12:25;95310.00;;;20.55;74.88
29247;BME280;16272;48.188;9.964;2022-08-19T00:14:50;95313.22;;;20.08;77.33
29247;BME280;16272;48.188;9.964;2022-08-19T00:17:15;95321.06;;;19.91;78.51
29247;BME280;16272;48.188;9.964;2022-08-19T00:19:41;95326.88;;;19.88;80.08
29247;BME280;16272;48.188;9.964;2022-08-19T00:22:06;95327.84;;;20.19;77.39
29247;BME280;16272;48.188;9.964;2022-08-19T00:24:34;95337.69;;;20.07;78.68
29247;BME280;16272;48.188;9.964;2022-08-19T00:27:05;95348.16;;;20.40;77.26
29247;BME280;16272;48.188;9.964;2022-08-19T00:29:30;95349.72;;;20.48;76.39
29247;BME280;16272;48.188;9.964;2022-08-19T00:31:56;95350.31;;;20.31;76.20
29247;BME280;16272;48.188;9.964;2022-08-19T00:34:24;95359.59;;;20.17;78.05
29247;BME280;16272;48.188;9.964;2022-08-19T00:36:55;95348.47;;;20.87;74.80
29247;BME280;16272;48.188;9.964;2022-08-19T00:39:20;95337.88;;;20.30;76.94
29247;BME280;16272;48.188;9.964;2022-08-19T00:41:47;95338.91;;;20.11;78.21
29247;BME280;16272;48.188;9.964;2022-08-19T00:44:16;95334.69;;;19.96;79.47
29247;BME280;16272;48.188;9.964;2022-08-19T00:46:46;95338.97;;;20.04;78.93
29247;BME280;16272;48.188;9.964;2022-08-19T00:52:00;95333.81;;;20.21;78.76
29247;BME280;16272;48.188;9.964;2022-08-19T00:54:26;95332.50;;;20.30;77.46
29247;BME280;16272;48.188;9.964;2022-08-19T00:56:57;95325.50;;;20.41;76.53
29247;BME280;16272;48.188;9.964;2022-08-19T00:59:23;95336.22;;;19.60;81.92
29247;BME280;16272;48.188;9.964;2022-08-19T01:01:50;95330.69;;;20.43;76.59
29247;BME280;16272;48.188;9.964;2022-08-19T01:04:15;95340.66;;;19.98;78.46
29247;BME280;16272;48.188;9.964;2022-08-19T01:06:50;95343.13;;;20.44;76.35
29247;BME280;16272;48.188;9.964;2022-08-19T01:09:15;95336.88;;;20.06;78.13
29247;BME280;16272;48.188;9.964;2022-08-19T01:11:43;95343.66;;;19.90;79.90
29247;BME280;16272;48.188;9.964;2022-08-19T01:14:12;95329.97;;;19.92;80.05
29247;BME280;16272;48.188;9.964;2022-08-19T01:16:38;95333.31;;;19.87;80.11
29247;BME280;16272;48.188;9.964;2022-08-19T01:19:13;95328.69;;;19.94;80.03
29247;BME280;16272;48.188;9.964;2022-08-19T01:21:48;95328.84;;;19.81;80.86
29247;BME280;16272;48.188;9.964;2022-08-19T01:24:15;95330.81;;;19.92;79.99
29247;BME280;16272;48.188;9.964;2022-08-19T01:26:42;95332.63;;;20.35;78.28
29247;BME280;16272;48.188;9.964;2022-08-19T01:29:08;95331.56;;;20.36;77.79
29247;BME280;16272;48.188;9.964;2022-08-19T01:31:34;95329.66;;;20.25;77.80
29247;BME280;16272;48.188;9.964;2022-08-19T01:34:01;95325.94;;;20.38;77.57
29247;BME280;16272;48.188;9.964;2022-08-19T01:38:52;95349.44;;;20.74;75.67
29247;BME280;16272;48.188;9.964;2022-08-19T01:41:18;95350.28;;;20.13;78.78
29247;BME280;16272;48.188;9.964;2022-08-19T01:43:43;95347.00;;;20.48;76.62
29247;BME280;16272;48.188;9.964;2022-08-19T01:46:09;95350.94;;;20.33;77.25
29247;BME280;16272;48.188;9.964;2022-08-19T01:48:40;95349.09;;;20.09;78.99
29247;BME280;16272;48.188;9.964;2022-08-19T01:51:07;95340.88;;;20.41;77.47
29247;BME280;16272;48.188;9.964;2022-08-19T01:53:33;95343.16;;;20.00;78.34
29247;BME280;16272;48.188;9.964;2022-08-19T01:56:00;95343.94;;;20.07;80.12
29247;BME280;16272;48.188;9.964;2022-08-19T01:58:30;95351.66;;;20.22;78.54
29247;BME280;16272;48.188;9.964;2022-08-19T02:00:57;95353.09;;;20.43;77.20
29247;BME280;16272;48.188;9.964;2022-08-19T02:03:23;95348.06;;;20.47;77.16
29247;BME280;16272;48.188;9.964;2022-08-19T02:05:54;95355.97;;;20.23;78.42
29247;BME280;16272;48.188;9.964;2022-08-19T02:08:20;95348.22;;;19.90;80.00
29247;BME280;16272;48.188;9.964;2022-08-19T02:10:45;95352.09;;;20.19;78.44
29247;BME280;16272;48.188;9.964;2022-08-19T02:13:12;95338.31;;;19.83;80.25
29247;BME280;16272;48.188;9.964;2022-08-19T02:15:38;95334.25;;;20.18;78.23
29247;BME280;16272;48.188;9.964;2022-08-19T02:18:04;95331.63;;;19.93;79.99
29247;BME280;16272;48.188;9.964;2022-08-19T02:20:29;95324.91;;;19.77;80.28
29247;BME280;16272;48.188;9.964;2022-08-19T02:22:54;95330.97;;;19.65;80.51
29247;BME280;16272;48.188;9.964;2022-08-19T02:25:20;95330.00;;;19.60;81.09
29247;BME280;16272;48.188;9.964;2022-08-19T02:27:45;95324.63;;;19.85;80.07
29247;BME280;16272;48.188;9.964;2022-08-19T02:30:14;95326.13;;;19.49;82.20
29247;BME280;16272;48.188;9.964;2022-08-19T02:32:40;95327.75;;;19.82;80.36
29247;BME280;16272;48.188;9.964;2022-08-19T02:35:07;95334.75;;;19.64;80.58
29247;BME280;16272;48.188;9.964;2022-08-19T02:37:32;95326.94;;;19.56;80.33
29247;BME280;16272;48.188;9.964;2022-08-19T02:40:16;95323.34;;;19.37;82.32
29247;BME280;16272;48.188;9.964;2022-08-19T02:42:43;95325.06;;;19.32;81.51
29247;BME280;16272;48.188;9.964;2022-08-19T02:45:09;95326.53;;;19.53;80.84
29247;BME280;16272;48.188;9.964;2022-08-19T02:47:35;95331.16;;;19.45;80.59
29247;BME280;16272;48.188;9.964;2022-08-19T02:50:01;95322.06;;;19.08;81.99
29247;BME280;16272;48.188;9.964;2022-08-19T02:52:27;95315.22;;;19.12;81.39
29247;BME280;16272;48.188;9.964;2022-08-19T02:54:53;95318.53;;;19.14;80.72
29247;BME280;16272;48.188;9.964;2022-08-19T02:57:18;95314.44;;;19.05;81.20
29247;BME280;16272;48.188;9.964;2022-08-19T02:59:43;95325.72;;;18.88;81.81
29247;BME280;16272;48.188;9.964;2022-08-19T03:02:09;95326.50;;;18.96;81.32
29247;BME280;16272;48.188;9.964;2022-08-19T03:04:34;95327.19;;;19.16;80.61
29247;BME280;16272;48.188;9.964;2022-08-19T03:06:59;95328.34;;;19.34;78.76
29247;BME280;16272;48.188;9.964;2022-08-19T03:09:25;95323.19;;;19.57;78.08
29247;BME280;16272;48.188;9.964;2022-08-19T03:11:50;95320.63;;;19.12;79.64
29247;BME280;16272;48.188;9.964;2022-08-19T03:14:16;95328.03;;;19.49;79.53
29247;BME280;16272;48.188;9.964;2022-08-19T03:16:45;95325.72;;;19.52;78.88
29247;BME280;16272;48.188;9.964;2022-08-19T03:19:11;95329.63;;;18.92;81.17
29247;BME280;16272;48.188;9.964;2022-08-19T03:21:37;95333.47;;;19.42;78.94
29247;BME280;16272;48.188;9.964;2022-08-19T03:24:05;95330.94;;;19.72;76.67
29247;BME280;16272;48.188;9.964;2022-08-19T03:26:32;95333.59;;;19.22;79.60
29247;BME280;16272;48.188;9.964;2022-08-19T03:28:57;95333.28;;;19.37;78.08
29247;BME280;16272;48.188;9.964;2022-08-19T03:31:26;95340.72;;;19.41;78.77
29247;BME280;16272;48.188;9.964;2022-08-19T03:33:52;95340.66;;;19.48;78.61
29247;BME280;16272;48.188;9.964;2022-08-19T03:36:21;95332.16;;;19.19;79.73
29247;BME280;16272;48.188;9.964;2022-08-19T03:38:50;95335.34;;;19.35;79.32
29247;BME280;16272;48.188;9.964;2022-08-19T03:41:21;95321.50;;;19.63;77.20
29247;BME280;16272;48.188;9.964;2022-08-19T03:43:47;95330.47;;;19.82;76.45
29247;BME280;16272;48.188;9.964;2022-08-19T03:46:19;95325.06;;;19.32;79.54
29247;BME280;16272;48.188;9.964;2022-08-19T03:48:47;95313.00;;;19.59;78.02
29247;BME280;16272;48.188;9.964;2022-08-19T03:51:20;95306.53;;;19.67;78.04
29247;BME280;16272;48.188;9.964;2022-08-19T03:53:47;95304.19;;;19.71;77.60
29247;BME280;16272;48.188;9.964;2022-08-19T03:56:12;95313.16;;;19.14;80.42
29247;BME280;16272;48.188;9.964;2022-08-19T03:58:39;95314.88;;;19.02;81.43
29247;BME280;16272;48.188;9.964;2022-08-19T04:01:09;95308.78;;;19.45;79.17
29247;BME280;16272;48.188;9.964;2022-08-19T04:03:34;95305.72;;;19.41;79.97
29247;BME280;16272;48.188;9.964;2022-08-19T04:06:20;95309.16;;;19.49;80.12
29247;BME280;16272;48.188;9.964;2022-08-19T04:08:48;95311.66;;;19.50;79.33
29247;BME280;16272;48.188;9.964;2022-08-19T04:11:17;95307.63;;;19.59;78.16
29247;BME280;16272;48.188;9.964;2022-08-19T04:13:43;95308.00;;;19.38;79.26
29247;BME280;16272;48.188;9.964;2022-08-19T04:16:10;95301.47;;;19.27;80.27
29247;BME280;16272;48.188;9.964;2022-08-19T04:18:37;95299.38;;;18.97;82.19
29247;BME280;16272;48.188;9.964;2022-08-19T04:21:19;95299.25;;;19.17;80.69
29247;BME280;16272;48.188;9.964;2022-08-19T04:23:45;95305.03;;;19.46;79.79
29247;BME280;16272;48.188;9.964;2022-08-19T04:26:15;95303.34;;;19.52;78.70
29247;BME280;16272;48.188;9.964;2022-08-19T04:28:41;95305.56;;;19.29;80.84
29247;BME280;16272;48.188;9.964;2022-08-19T04:31:13;95307.06;;;19.25;81.17
29247;BME280;16272;48.188;9.964;2022-08-19T04:33:38;95311.06;;;19.16;80.89
29247;BME280;16272;48.188;9.964;2022-08-19T04:36:05;95308.16;;;19.43;79.60
29247;BME280;16272;48.188;9.964;2022-08-19T04:38:30;95316.88;;;19.45;79.56
29247;BME280;16272;48.188;9.964;2022-08-19T04:40:55;95318.84;;;19.56;78.20
29247;BME280;16272;48.188;9.964;2022-08-19T04:43:39;95327.19;;;19.73;78.28
29247;BME280;16272;48.188;9.964;2022-08-19T04:46:09;95334.53;;;19.91;77.13
29247;BME280;16272;48.188;9.964;2022-08-19T04:48:38;95328.63;;;19.51;79.65
29247;BME280;16272;48.188;9.964;2022-08-19T04:51:09;95346.06;;;19.48;80.05
29247;BME280;16272;48.188;9.964;2022-08-19T04:53:36;95353.47;;;19.53;79.30
29247;BME280;16272;48.188;9.964;2022-08-19T04:56:06;95358.56;;;19.36;80.64
29247;BME280;16272;48.188;9.964;2022-08-19T04:58:32;95362.72;;;19.63;79.46
29247;BME280;16272;48.188;9.964;2022-08-19T05:00:58;95363.31;;;19.65;78.58
29247;BME280;16272;48.188;9.964;2022-08-19T05:03:25;95365.31;;;19.77;78.31
29247;BME280;16272;48.188;9.964;2022-08-19T05:05:51;95375.84;;;19.53;78.92
29247;BME280;16272;48.188;9.964;2022-08-19T05:08:18;95379.91;;;19.62;79.16
29247;BME280;16272;48.188;9.964;2022-08-19T05:10:46;95375.38;;;19.63;78.84
29247;BME280;16272;48.188;9.964;2022-08-19T05:13:13;95389.59;;;19.45;79.80
29247;BME280;16272;48.188;9.964;2022-08-19T05:15:38;95384.06;;;19.26;80.74
29247;BME280;16272;48.188;9.964;2022-08-19T05:18:04;95390.34;;;19.52;79.29
29247;BME280;16272;48.188;9.964;2022-08-19T05:20:48;95399.44;;;19.58;78.80
29247;BME280;16272;48.188;9.964;2022-08-19T05:23:32;95391.13;;;19.27;80.78
29247;BME280;16272;48.188;9.964;2022-08-19T05:25:57;95390.22;;;19.02;80.91
29247;BME280;16272;48.188;9.964;2022-08-19T05:28:23;95389.53;;;18.61;83.85
29247;BME280;16272;48.188;9.964;2022-08-19T05:30:48;95394.06;;;19.58;78.84
29247;BME280;16272;48.188;9.964;2022-08-19T05:33:16;95390.44;;;19.39;79.25
29247;BME280;16272;48.188;9.964;2022-08-19T05:35:42;95404.28;;;19.42;79.80
29247;BME280;16272;48.188;9.964;2022-08-19T05:38:09;95393.09;;;19.71;78.03
29247;BME280;16272;48.188;9.964;2022-08-19T05:40:37;95397.44;;;20.04;75.90
29247;BME280;16272;48.188;9.964;2022-08-19T05:43:06;95394.47;;;20.12;75.32
29247;BME280;16272;48.188;9.964;2022-08-19T05:45:32;95396.69;;;19.96;75.83
29247;BME280;16272;48.188;9.964;2022-08-19T05:48:02;95399.97;;;19.98;75.85
29247;BME280;16272;48.188;9.964;2022-08-19T05:50:40;95395.06;;;19.89;76.57
29247;BME280;16272;48.188;9.964;2022-08-19T05:53:08;95395.41;;;20.24;74.57
29247;BME280;16272;48.188;9.964;2022-08-19T05:55:35;95386.72;;;20.22;74.39
29247;BME280;16272;48.188;9.964;2022-08-19T05:58:02;95392.22;;;20.09;75.24
29247;BME280;16272;48.188;9.964;2022-08-19T06:00:27;95397.88;;;19.43;77.66
29247;BME280;16272;48.188;9.964;2022-08-19T06:02:56;95399.91;;;19.80;76.55
29247;BME280;16272;48.188;9.964;2022-08-19T06:05:24;95402.94;;;19.90;76.57
29247;BME280;16272;48.188;9.964;2022-08-19T06:07:50;95393.34;;;19.76;76.22
29247;BME280;16272;48.188;9.964;2022-08-19T06:10:15;95394.94;;;20.09;74.68
29247;BME280;16272;48.188;9.964;2022-08-19T06:12:45;95390.28;;;20.60;72.80
29247;BME280;16272;48.188;9.964;2022-08-19T06:15:13;95392.03;;;20.47;73.11
29247;BME280;16272;48.188;9.964;2022-08-19T06:17:42;95384.75;;;20.29;73.71
29247;BME280;16272;48.188;9.964;2022-08-19T06:20:11;95385.78;;;20.10;74.58
29247;BME280;16272;48.188;9.964;2022-08-19T06:22:53;95387.00;;;20.14;75.11
29247;BME280;16272;48.188;9.964;2022-08-19T06:25:21;95389.38;;;19.72;75.54
29247;BME280;16272;48.188;9.964;2022-08-19T06:27:49;95390.34;;;19.52;78.27
29247;BME280;16272;48.188;9.964;2022-08-19T06:30:21;95387.50;;;19.47;78.25
29247;BME280;16272;48.188;9.964;2022-08-19T06:32:46;95386.75;;;19.65;77.92
29247;BME280;16272;48.188;9.964;2022-08-19T06:35:11;95390.03;;;19.99;76.39
29247;BME280;16272;48.188;9.964;2022-08-19T06:37:39;95396.44;;;19.73;77.68
29247;BME280;16272;48.188;9.964;2022-08-19T06:40:05;95406.88;;;19.56;78.86
29247;BME280;16272;48.188;9.964;2022-08-19T06:42:30;95401.75;;;19.86;77.37
29247;BME280;16272;48.188;9.964;2022-08-19T06:44:56;95400.03;;;20.17;75.90
29247;BME280;16272;48.188;9.964;2022-08-19T06:47:24;95411.81;;;19.65;78.01
29247;BME280;16272;48.188;9.964;2022-08-19T06:49:49;95410.00;;;19.91;77.09
29247;BME280;16272;48.188;9.964;2022-08-19T06:52:15;95399.41;;;19.64;76.45
29247;BME280;16272;48.188;9.964;2022-08-19T06:54:41;95411.66;;;19.92;77.08
29247;BME280;16272;48.188;9.964;2022-08-19T06:57:14;95404.16;;;19.94;76.78
29247;BME280;16272;48.188;9.964;2022-08-19T06:59:51;95412.66;;;19.59;78.36
29247;BME280;16272;48.188;9.964;2022-08-19T07:02:16;95404.38;;;20.18;74.66
29247;BME280;16272;48.188;9.964;2022-08-19T07:04:42;95401.22;;;20.21;75.33
29247;BME280;16272;48.188;9.964;2022-08-19T07:07:10;95393.94;;;20.22;74.94
29247;BME280;16272;48.188;9.964;2022-08-19T07:09:38;95398.19;;;19.92;76.92
29247;BME280;16272;48.188;9.964;2022-08-19T07:12:06;95399.56;;;20.20;75.83
29247;BME280;16272;48.188;9.964;2022-08-19T07:14:33;95395.31;;;19.23;80.24
29247;BME280;16272;48.188;9.964;2022-08-19T07:17:03;95406.47;;;19.27;79.96
29247;BME280;16272;48.188;9.964;2022-08-19T07:19:29;95390.22;;;19.02;81.97
29247;BME280;16272;48.188;9.964;2022-08-19T07:21:55;95402.75;;;19.21;80.36
29247;BME280;16272;48.188;9.964;2022-08-19T07:24:23;95408.38;;;19.13;81.33
29247;BME280;16272;48.188;9.964;2022-08-19T07:26:50;95398.69;;;19.12;81.97
29247;BME280;16272;48.188;9.964;2022-08-19T07:29:16;95408.38;;;19.13;81.46
29247;BME280;16272;48.188;9.964;2022-08-19T07:31:56;95408.69;;;19.37;79.38
29247;BME280;16272;48.188;9.964;2022-08-19T07:34:24;95415.63;;;19.51;79.02
29247;BME280;16272;48.188;9.964;2022-08-19T07:36:51;95409.53;;;19.31;79.74
29247;BME280;16272;48.188;9.964;2022-08-19T07:39:21;95413.81;;;19.45;79.85
29247;BME280;16272;48.188;9.964;2022-08-19T07:41:47;95412.56;;;19.79;77.91
29247;BME280;16272;48.188;9.964;2022-08-19T07:44:13;95410.50;;;19.75;78.62
29247;BME280;16272;48.188;9.964;2022-08-19T07:46:42;95401.16;;;19.84;78.65
29247;BME280;16272;48.188;9.964;2022-08-19T07:49:10;95398.94;;;19.99;78.00
29247;BME280;16272;48.188;9.964;2022-08-19T07:51:56;95400.59;;;20.00;77.73
29247;BME280;16272;48.188;9.964;2022-08-19T07:54:24;95407.94;;;20.12;77.10
29247;BME280;16272;48.188;9.964;2022-08-19T07:56:53;95401.75;;;20.73;75.06
29247;BME280;16272;48.188;9.964;2022-08-19T07:59:19;95408.00;;;20.30;77.80
29247;BME280;16272;48.188;9.964;2022-08-19T08:01:46;95411.28;;;19.82;78.06
29247;BME280;16272;48.188;9.964;2022-08-19T08:04:12;95421.41;;;20.12;77.37
29247;BME280;16272;48.188;9.964;2022-08-19T08:06:56;95412.38;;;20.87;74.35
29247;BME280;16272;48.188;9.964;2022-08-19T08:09:42;95410.34;;;20.45;76.56
29247;BME280;16272;48.188;9.964;2022-08-19T08:12:17;95416.59;;;20.64;73.96
29247;BME280;16272;48.188;9.964;2022-08-19T08:14:49;95419.06;;;19.97;77.40
29247;BME280;16272;48.188;9.964;2022-08-19T08:17:17;95422.34;;;20.24;76.09
29247;BME280;16272;48.188;9.964;2022-08-19T08:19:44;95407.34;;;20.10;77.23
29247;BME280;16272;48.188;9.964;2022-08-19T08:22:13;95411.84;;;20.16;77.60
29247;BME280;16272;48.188;9.964;2022-08-19T08:25:02;95408.50;;;20.64;75.54
29247;BME280;16272;48.188;9.964;2022-08-19T08:27:28;95414.94;;;21.00;73.98
29247;BME280;16272;48.188;9.964;2022-08-19T08:29:56;95411.25;;;21.13;76.32
29247;BME280;16272;48.188;9.964;2022-08-19T08:32:21;95403.75;;;21.45;73.38
29247;BME280;16272;48.188;9.964;2022-08-19T08:34:47;95412.13;;;21.25;72.83
29247;BME280;16272;48.188;9.964;2022-08-19T08:37:20;95401.47;;;21.30;74.92
29247;BME280;16272;48.188;9.964;2022-08-19T08:39:47;95400.53;;;21.55;73.47
29247;BME280;16272;48.188;9.964;2022-08-19T08:44:52;95411.91;;;21.57;71.91
29247;BME280;16272;48.188;9.964;2022-08-19T08:47:47;95414.47;;;21.03;73.50
29247;BME280;16272;48.188;9.964;2022-08-19T08:52:45;95419.63;;;21.23;72.99
29247;BME280;16272;48.188;9.964;2022-08-19T08:55:17;95424.34;;;21.89;71.06
29247;BME280;16272;48.188;9.964;2022-08-19T08:57:53;95418.25;;;21.02;72.96
29247;BME280;16272;48.188;9.964;2022-08-19T09:00:37;95432.44;;;20.54;73.47
29247;BME280;16272;48.188;9.964;2022-08-19T09:03:06;95439.31;;;20.93;74.62
29247;BME280;16272;48.188;9.964;2022-08-19T09:17:09;95430.00;;;21.08;72.64
29247;BME280;16272;48.188;9.964;2022-08-19T09:22:29;95434.50;;;20.77;73.37
29247;BME280;16272;48.188;9.964;2022-08-19T09:24:56;95432.41;;;21.16;72.34
29247;BME280;16272;48.188;9.964;2022-08-19T09:27:23;95426.19;;;20.79;73.96
29247;BME280;16272;48.188;9.964;2022-08-19T09:29:51;95422.97;;;20.70;73.22
29247;BME280;16272;48.188;9.964;2022-08-19T09:32:17;95427.41;;;20.83;75.06
29247;BME280;16272;48.188;9.964;2022-08-19T09:34:43;95427.56;;;20.88;73.10
29247;BME280;16272;48.188;9.964;2022-08-19T09:37:09;95428.94;;;20.90;73.60
29247;BME280;16272;48.188;9.964;2022-08-19T09:39:34;95438.09;;;20.27;75.27
29247;BME280;16272;48.188;9.964;2022-08-19T09:42:01;95438.72;;;20.91;73.77
29247;BME280;16272;48.188;9.964;2022-08-19T09:44:28;95444.59;;;20.45;74.77
29247;BME280;16272;48.188;9.964;2022-08-19T09:47:03;95438.94;;;20.90;73.76
29247;BME280;16272;48.188;9.964;2022-08-19T09:49:29;95451.25;;;20.17;77.08
29247;BME280;16272;48.188;9.964;2022-08-19T09:51:55;95446.50;;;20.37;74.67
29247;BME280;16272;48.188;9.964;2022-08-19T09:54:21;95455.44;;;20.63;73.74
29247;BME280;16272;48.188;9.964;2022-08-19T09:56:46;95464.38;;;19.75;77.12
29247;BME280;16272;48.188;9.964;2022-08-19T09:59:19;95472.31;;;20.52;74.75
29247;BME280;16272;48.188;9.964;2022-08-19T10:01:44;95473.81;;;20.23;74.95
29247;BME280;16272;48.188;9.964;2022-08-19T10:04:10;95480.00;;;19.98;75.51
29247;BME280;16272;48.188;9.964;2022-08-19T10:06:37;95485.75;;;19.76;78.21
29247;BME280;16272;48.188;9.964;2022-08-19T10:09:10;95488.78;;;19.87;77.81
29247;BME280;16272;48.188;9.964;2022-08-19T10:11:40;95491.53;;;19.35;79.71
29247;BME280;16272;48.188;9.964;2022-08-19T10:14:06;95495.59;;;19.96;77.79
29247;BME280;16272;48.188;9.964;2022-08-19T10:16:32;95488.84;;;19.80;77.55
29247;BME280;16272;48.188;9.964;2022-08-19T10:18:58;95497.59;;;20.07;77.76
29247;BME280;16272;48.188;9.964;2022-08-19T10:21:27;95496.66;;;18.98;82.96
29247;BME280;16272;48.188;9.964;2022-08-19T10:23:56;95505.34;;;18.80;84.17
29247;BME280;16272;48.188;9.964;2022-08-19T10:26:27;95513.53;;;19.32;81.16
29247;BME280;16272;48.188;9.964;2022-08-19T10:29:06;95513.25;;;19.85;78.48
29247;BME280;16272;48.188;9.964;2022-08-19T10:31:33;95520.56;;;20.10;76.38
29247;BME280;16272;48.188;9.964;2022-08-19T10:33:59;95521.63;;;20.34;75.60
29247;BME280;16272;48.188;9.964;2022-08-19T10:36:31;95514.63;;;20.26;75.70
29247;BME280;16272;48.188;9.964;2022-08-19T10:38:58;95511.66;;;20.34;74.49
29247;BME280;16272;48.188;9.964;2022-08-19T10:41:29;95511.41;;;19.40;79.63
29247;BME280;16272;48.188;9.964;2022-08-19T10:43:57;95494.84;;;19.37;79.41
29247;BME280;16272;48.188;9.964;2022-08-19T10:46:25;95507.44;;;18.91;82.46
29247;BME280;16272;48.188;9.964;2022-08-19T10:48:51;95496.13;;;19.27;80.56
29247;BME280;16272;48.188;9.964;2022-08-19T10:51:18;95498.56;;;19.36;80.52
29247;BME280;16272;48.188;9.964;2022-08-19T10:54:03;95493.94;;;19.56;79.30
29247;BME280;16272;48.188;9.964;2022-08-19T10:56:29;95482.28;;;19.62;78.79
29247;BME280;16272;48.188;9.964;2022-08-19T10:59:14;95472.50;;;19.29;80.63
29247;BME280;16272;48.188;9.964;2022-08-19T11:01:41;95486.16;;;19.28;81.07
29247;BME280;16272;48.188;9.964;2022-08-19T11:04:07;95483.19;;;19.43;80.02
29247;BME280;16272;48.188;9.964;2022-08-19T11:06:36;95486.06;;;19.55;80.03
29247;BME280;16272;48.188;9.964;2022-08-19T11:09:04;95486.03;;;19.61;78.96
29247;BME280;16272;48.188;9.964;2022-08-19T11:11:30;95493.91;;;19.95;77.83
29247;BME280;16272;48.188;9.964;2022-08-19T11:13:57;95484.38;;;19.99;77.10
29247;BME280;16272;48.188;9.964;2022-08-19T11:16:28;95489.50;;;19.69;78.33
29247;BME280;16272;48.188;9.964;2022-08-19T11:18:57;95486.59;;;19.70;78.68
29247;BME280;16272;48.188;9.964;2022-08-19T11:21:33;95484.63;;;19.00;82.35
29247;BME280;16272;48.188;9.964;2022-08-19T11:24:18;95489.75;;;19.60;79.67
29247;BME280;16272;48.188;9.964;2022-08-19T11:26:47;95502.22;;;19.03;83.10
29247;BME280;16272;48.188;9.964;2022-08-19T11:29:33;95497.97;;;19.34;81.64
29247;BME280;16272;48.188;9.964;2022-08-19T11:35:00;95492.28;;;19.55;79.60
29247;BME280;16272;48.188;9.964;2022-08-19T11:37:25;95492.81;;;19.25;81.69
29247;BME280;16272;48.188;9.964;2022-08-19T11:40:01;95497.53;;;19.37;80.65
29247;BME280;16272;48.188;9.964;2022-08-19T11:42:26;95489.47;;;19.37;79.69
29247;BME280;16272;48.188;9.964;2022-08-19T11:45:10;95487.66;;;19.62;78.99
29247;BME280;16272;48.188;9.964;2022-08-19T11:47:36;95483.91;;;19.32;82.12
29247;BME280;16272;48.188;9.964;2022-08-19T11:50:04;95490.56;;;19.22;80.70
29247;BME280;16272;48.188;9.964;2022-08-19T11:52:30;95486.31;;;18.88;84.11
29247;BME280;16272;48.188;9.964;2022-08-19T11:54:55;95485.94;;;18.71;88.05
29247;BME280;16272;48.188;9.964;2022-08-19T11:57:21;95480.69;;;19.03;83.64
29247;BME280;16272;48.188;9.964;2022-08-19T11:59:52;95493.78;;;18.92;83.97
29247;BME280;16272;48.188;9.964;2022-08-19T12:02:18;95488.81;;;18.76;85.04
29247;BME280;16272;48.188;9.964;2022-08-19T12:04:44;95492.34;;;18.70;85.96
29247;BME280;16272;48.188;9.964;2022-08-19T12:07:09;95502.09;;;18.17;86.82
29247;BME280;16272;48.188;9.964;2022-08-19T12:09:35;95468.97;;;23.28;66.09
29247;BME280;16272;48.188;9.964;2022-08-19T12:12:01;95480.75;;;23.62;64.15
29247;BME280;16272;48.188;9.964;2022-08-19T12:14:27;95480.03;;;23.38;64.30
29247;BME280;16272;48.188;9.964;2022-08-19T12:16:55;95485.75;;;24.28;62.56
29247;BME280;16272;48.188;9.964;2022-08-19T12:19:20;95482.16;;;23.65;62.99
29247;BME280;16272;48.188;9.964;2022-08-19T12:21:45;95483.16;;;23.47;64.97
29247;BME280;16272;48.188;9.964;2022-08-19T12:24:11;95484.19;;;23.17;66.33
29247;BME280;16272;48.188;9.964;2022-08-19T12:26:36;95490.28;;;24.06;62.88
29247;BME280;16272;48.188;9.964;2022-08-19T12:29:02;95481.13;;;23.95;61.84
29247;BME280;16272;48.188;9.964;2022-08-19T12:31:28;95485.63;;;23.89;62.68
29247;BME280;16272;48.188;9.964;2022-08-19T12:33:54;95494.66;;;23.25;63.78
29247;BME280;16272;48.188;9.964;2022-08-19T12:36:19;95490.38;;;23.70;63.00
29247;BME280;16272;48.188;9.964;2022-08-19T12:38:47;95484.47;;;23.85;61.83
29247;BME280;16272;48.188;9.964;2022-08-19T12:41:16;95495.97;;;23.63;65.08
29247;BME280;16272;48.188;9.964;2022-08-19T12:43:43;95495.53;;;23.43;63.75
29247;BME280;16272;48.188;9.964;2022-08-19T12:46:09;95504.31;;;24.02;62.95
29247;BME280;16272;48.188;9.964;2022-08-19T12:48:36;95503.47;;;23.73;63.79
29247;BME280;16272;48.188;9.964;2022-08-19T12:51:12;95500.31;;;24.22;62.17
29247;BME280;16272;48.188;9.964;2022-08-19T12:53:38;95512.88;;;23.42;64.33
29247;BME280;16272;48.188;9.964;2022-08-19T12:56:05;95516.94;;;22.56;65.99
29247;BME280;16272;48.188;9.964;2022-08-19T12:58:30;95510.44;;;23.28;64.36
29247;BME280;16272;48.188;9.964;2022-08-19T13:00:56;95518.81;;;23.15;65.17
29247;BME280;16272;48.188;9.964;2022-08-19T13:03:22;95513.59;;;24.07;62.49
29247;BME280;16272;48.188;9.964;2022-08-19T13:05:53;95524.59;;;23.07;65.32
29247;BME280;16272;48.188;9.964;2022-08-19T13:08:19;95528.22;;;23.24;65.00
29247;BME280;16272;48.188;9.964;2022-08-19T13:10:44;95531.41;;;23.21;65.33
29247;BME280;16272;48.188;9.964;2022-08-19T13:13:09;95529.06;;;23.65;63.31
29247;BME280;16272;48.188;9.964;2022-08-19T13:15:37;95531.44;;;24.48;61.82
29247;BME280;16272;48.188;9.964;2022-08-19T13:18:06;95529.06;;;24.23;62.26
29247;BME280;16272;48.188;9.964;2022-08-19T13:20:32;95530.34;;;23.22;65.11
29247;BME280;16272;48.188;9.964;2022-08-19T13:22:58;95527.47;;;23.41;65.18
29247;BME280;16272;48.188;9.964;2022-08-19T13:25:24;95522.50;;;23.61;63.93
29247;BME280;16272;48.188;9.964;2022-08-19T13:27:50;95521.50;;;23.67;63.93
29247;BME280;16272;48.188;9.964;2022-08-19T13:30:18;95529.31;;;24.04;63.34
29247;BME280;16272;48.188;9.964;2022-08-19T13:33:03;95527.88;;;23.73;63.93